Time;durP1;ratioP1;P1;durP2;ratioP2;P2;SDS_P1;SDS_P2;PMS_P1;PMS_P2;Temp;Humidity;BMP_temperature;BMP_pressure;BME280_temperature;BME280_humidity;BME280_pressure;Samples;Min_cycle;Max_cycle;Signal;HPM_P1;HPM_P2
2023/04/20 00:01:56;;;;;;;6.22;4.75;;;3.60;99.90;;;;;;5045755;28;20576;-39
2023/04/20 00:04:24;;;;;;;6.78;5.93;;;3.60;99.90;;;;;;5039847;28;20056;-40
2023/04/20 00:06:51;;;;;;;7.32;6.68;;;3.60;99.90;;;;;;5045161;28;20510;-39
2023/04/20 00:09:19;;;;;;;6.55;5.75;;;3.60;99.90;;;;;;5045305;28;20540;-40
2023/04/20 00:11:47;;;;;;;9.85;5.32;;;3.60;99.90;;;;;;5044868;28;20577;-38
2023/04/20 00:14:15;;;;;;;8.57;4.97;;;3.50;99.90;;;;;;5045819;28;20057;-38
2023/04/20 00:16:42;;;;;;;7.85;5.65;;;3.50;99.90;;;;;;5045761;28;20053;-39
2023/04/20 00:19:10;;;;;;;7.55;5.78;;;3.50;99.90;;;;;;5044189;28;20049;-38
2023/04/20 00:21:37;;;;;;;5.45;4.82;;;3.50;99.90;;;;;;5044783;28;20501;-38
2023/04/20 00:24:06;;;;;;;7.63;6.82;;;3.50;99.90;;;;;;5045431;28;20050;-39
2023/04/20 00:26:34;;;;;;;8.27;5.82;;;3.50;99.90;;;;;;5044697;28;20052;-38
2023/04/20 00:29:02;;;;;;;7.38;6.25;;;3.40;99.90;;;;;;5045606;28;20494;-39
2023/04/20 00:31:30;;;;;;;8.63;6.00;;;3.50;99.90;;;;;;5045149;28;20053;-39
2023/04/20 00:33:58;;;;;;;8.13;6.40;;;3.50;99.90;;;;;;5043522;28;20053;-39
2023/04/20 00:36:26;;;;;;;6.03;5.45;;;3.40;99.90;;;;;;5059798;28;20053;-38
2023/04/20 00:38:54;;;;;;;8.20;6.97;;;3.50;99.90;;;;;;5044780;28;20049;-40
2023/04/20 00:41:22;;;;;;;8.30;6.55;;;3.50;99.90;;;;;;5045169;28;20067;-39
2023/04/20 00:43:51;;;;;;;7.72;6.97;;;3.50;99.90;;;;;;5042778;28;20049;-39
2023/04/20 00:46:22;;;;;;;7.13;6.00;;;3.50;99.90;;;;;;5043930;28;20045;-39
2023/04/20 00:48:52;;;;;;;8.25;7.40;;;3.50;99.90;;;;;;5044061;28;20076;-39
2023/04/20 00:51:21;;;;;;;10.47;6.73;;;3.50;99.90;;;;;;5043595;28;20036;-39
2023/04/20 00:53:48;;;;;;;8.45;6.60;;;3.50;99.90;;;;;;5045085;28;20045;-39
2023/04/20 00:56:18;;;;;;;8.38;7.05;;;3.50;99.90;;;;;;5044044;28;20048;-39
2023/04/20 00:58:46;;;;;;;9.93;7.68;;;3.50;99.90;;;;;;5043533;28;20041;-39
2023/04/20 01:01:16;;;;;;;11.35;7.82;;;3.50;99.90;;;;;;5045197;28;20080;-40
2023/04/20 01:03:45;;;;;;;8.05;6.35;;;3.50;99.90;;;;;;5040549;28;20512;-40
2023/04/20 01:06:14;;;;;;;11.20;7.82;;;3.60;99.90;;;;;;5044690;28;20040;-38
2023/04/20 01:08:50;;;;;;;9.32;7.03;;;3.50;99.90;;;;;;5043686;28;20045;-40
2023/04/20 01:11:17;;;;;;;11.90;8.20;;;3.60;99.90;;;;;;5042930;28;20053;-39
2023/04/20 01:13:45;;;;;;;8.45;6.88;;;3.60;99.90;;;;;;5042728;28;20049;-39
2023/04/20 01:16:12;;;;;;;9.30;7.53;;;3.60;99.90;;;;;;5044956;28;20037;-39
2023/04/20 01:18:42;;;;;;;10.65;7.05;;;3.50;99.90;;;;;;5044532;28;20550;-42
2023/04/20 01:21:11;;;;;;;12.55;8.75;;;3.50;99.90;;;;;;5044154;28;20057;-38
2023/04/20 01:23:39;;;;;;;12.73;8.00;;;3.60;99.90;;;;;;5044908;28;20076;-42
2023/04/20 01:26:09;;;;;;;10.05;8.60;;;3.60;99.90;;;;;;5044681;28;20052;-44
2023/04/20 01:28:37;;;;;;;13.88;7.75;;;3.50;99.90;;;;;;5043890;28;20171;-40
2023/04/20 01:31:06;;;;;;;9.98;8.32;;;3.60;99.90;;;;;;5056588;28;20044;-40
2023/04/20 01:33:34;;;;;;;11.32;10.10;;;3.60;99.90;;;;;;5043227;28;20060;-40
2023/04/20 01:36:03;;;;;;;9.10;7.90;;;3.60;99.90;;;;;;5043545;28;20154;-41
2023/04/20 01:38:33;;;;;;;8.32;7.32;;;3.60;99.90;;;;;;5044206;28;20049;-40
2023/04/20 01:41:06;;;;;;;11.48;8.45;;;3.60;99.90;;;;;;5041512;28;20057;-39
2023/04/20 01:43:36;;;;;;;12.55;8.13;;;3.60;99.90;;;;;;5038641;28;20048;-39
2023/04/20 01:46:05;;;;;;;13.90;10.52;;;3.60;99.90;;;;;;5044361;28;20527;-40
2023/04/20 01:48:33;;;;;;;13.02;10.07;;;3.70;99.90;;;;;;5042489;28;20041;-39
2023/04/20 01:51:00;;;;;;;11.80;9.57;;;3.70;99.90;;;;;;5045005;28;20477;-41
2023/04/20 01:53:28;;;;;;;13.63;10.23;;;3.70;99.90;;;;;;5044146;28;20049;-40
2023/04/20 01:55:55;;;;;;;11.77;10.60;;;3.70;99.90;;;;;;5044662;28;20041;-42
2023/04/20 01:58:23;;;;;;;14.27;10.27;;;3.70;99.90;;;;;;5045732;28;20052;-40
2023/04/20 02:00:50;;;;;;;10.88;8.32;;;3.70;99.90;;;;;;5048812;28;20075;-42
2023/04/20 02:03:18;;;;;;;13.98;10.77;;;3.70;99.90;;;;;;5048981;28;20044;-41
2023/04/20 02:05:46;;;;;;;9.98;8.95;;;3.60;99.90;;;;;;5047005;28;20068;-40
2023/04/20 02:08:14;;;;;;;13.73;9.98;;;3.60;99.90;;;;;;5047691;28;20061;-40
2023/04/20 02:10:41;;;;;;;8.50;7.35;;;3.50;99.90;;;;;;5048040;28;20052;-41
2023/04/20 02:13:09;;;;;;;14.05;9.88;;;3.50;99.90;;;;;;5047378;28;20216;-40
2023/04/20 02:15:36;;;;;;;8.93;7.57;;;3.50;99.90;;;;;;5063375;28;20052;-43
2023/04/20 02:18:04;;;;;;;14.35;8.13;;;3.50;99.90;;;;;;5048336;28;20076;-40
2023/04/20 02:20:32;;;;;;;7.60;6.82;;;3.50;99.90;;;;;;5047366;28;20053;-40
2023/04/20 02:22:59;;;;;;;11.80;7.38;;;3.50;99.90;;;;;;5048151;28;20509;-40
2023/04/20 02:25:27;;;;;;;6.50;5.90;;;3.50;99.90;;;;;;5047808;28;20056;-40
2023/04/20 02:27:55;;;;;;;11.50;8.57;;;3.40;99.90;;;;;;5046331;28;20049;-41
2023/04/20 02:30:22;;;;;;;11.68;8.35;;;3.40;99.90;;;;;;5045269;28;20410;-41
2023/04/20 02:32:50;;;;;;;8.32;7.47;;;3.40;99.90;;;;;;5048015;28;20059;-40
2023/04/20 02:35:17;;;;;;;8.23;7.53;;;3.40;99.90;;;;;;5046709;28;20407;-40
2023/04/20 02:37:45;;;;;;;11.95;8.05;;;3.30;99.90;;;;;;5046797;28;20068;-40
2023/04/20 02:40:13;;;;;;;13.70;7.88;;;3.30;99.90;;;;;;5046951;28;20045;-40
2023/04/20 02:42:41;;;;;;;8.57;7.28;;;3.30;99.90;;;;;;5044032;28;20477;-39
2023/04/20 02:45:10;;;;;;;9.43;7.32;;;3.40;99.90;;;;;;5077523;28;20053;-39
2023/04/20 02:47:40;;;;;;;12.00;6.72;;;3.30;99.90;;;;;;5044733;28;20051;-39
2023/04/20 02:50:09;;;;;;;8.13;7.10;;;3.30;99.90;;;;;;5045663;28;20527;-39
2023/04/20 02:52:53;;;;;;;8.13;6.75;;;3.30;99.90;;;;;;5061017;28;20524;-40
2023/04/20 02:55:21;;;;;;;8.50;7.50;;;3.30;99.90;;;;;;5046773;28;20048;-39
2023/04/20 02:57:53;;;;;;;8.23;7.30;;;3.30;99.90;;;;;;5046081;28;20453;-39
2023/04/20 03:00:24;;;;;;;7.95;6.82;;;3.30;99.90;;;;;;5061117;28;20056;-41
2023/04/20 03:03:03;;;;;;;9.23;7.18;;;3.30;99.90;;;;;;5044778;28;20064;-39
2023/04/20 03:05:32;;;;;;;6.75;5.65;;;3.30;99.90;;;;;;5045277;28;20064;-43
2023/04/20 03:08:00;;;;;;;9.32;7.22;;;3.30;99.90;;;;;;5061045;28;20045;-40
2023/04/20 03:10:27;;;;;;;11.60;6.43;;;3.20;99.90;;;;;;5044419;28;20037;-39
2023/04/20 03:13:13;;;;;;;6.63;5.93;;;3.20;99.90;;;;;;5059884;28;20398;-41
2023/04/20 03:15:50;;;;;;;9.48;7.72;;;3.20;99.90;;;;;;5060109;28;20052;-39
2023/04/20 03:18:31;;;;;;;8.45;6.95;;;3.10;99.90;;;;;;5047102;28;20052;-42
2023/04/20 03:21:00;;;;;;;4.28;3.92;;;3.10;99.90;;;;;;5061096;28;20057;-46
2023/04/20 03:23:30;;;;;;;4.32;4.03;;;3.10;99.90;;;;;;5045069;28;20060;-43
2023/04/20 03:26:00;;;;;;;6.63;5.97;;;3.10;99.90;;;;;;5044759;28;20056;-40
2023/04/20 03:28:40;;;;;;;10.05;7.38;;;3.10;99.90;;;;;;5020146;28;20052;-42
2023/04/20 03:31:10;;;;;;;9.32;6.60;;;3.10;99.90;;;;;;5044378;28;20037;-41
2023/04/20 03:33:38;;;;;;;6.78;5.32;;;3.10;99.90;;;;;;5046906;28;20052;-43
2023/04/20 03:36:06;;;;;;;9.10;8.25;;;3.10;99.90;;;;;;5044813;28;20470;-38
2023/04/20 03:38:34;;;;;;;9.50;7.00;;;3.00;99.90;;;;;;5045754;28;20079;-41
2023/04/20 03:41:02;;;;;;;7.32;6.25;;;3.10;99.90;;;;;;5044452;28;20537;-41
2023/04/20 03:43:29;;;;;;;6.50;5.75;;;3.10;99.90;;;;;;5043021;28;20048;-40
2023/04/20 03:45:57;;;;;;;10.52;8.82;;;3.00;99.90;;;;;;5044509;28;20497;-40
2023/04/20 03:48:24;;;;;;;5.38;4.88;;;3.00;99.90;;;;;;5046560;28;20049;-39
2023/04/20 03:50:52;;;;;;;6.40;5.78;;;3.00;99.90;;;;;;5012718;28;20529;-41
2023/04/20 03:53:20;;;;;;;8.25;7.13;;;3.00;99.90;;;;;;5012230;28;20521;-42
2023/04/20 03:55:47;;;;;;;10.63;7.97;;;3.00;99.90;;;;;;5008331;28;20706;-40
2023/04/20 03:58:20;;;;;;;10.23;7.95;;;3.00;99.90;;;;;;5014518;28;20058;-41
2023/04/20 04:01:03;;;;;;;12.20;8.07;;;3.00;99.90;;;;;;5010184;28;20053;-42
2023/04/20 04:03:31;;;;;;;10.75;8.25;;;3.00;99.90;;;;;;5010386;28;20049;-40
2023/04/20 04:06:00;;;;;;;10.35;7.88;;;3.00;99.90;;;;;;5015077;28;20053;-43
2023/04/20 04:08:27;;;;;;;8.50;7.75;;;3.00;99.90;;;;;;5004746;28;20538;-42
2023/04/20 04:10:56;;;;;;;10.38;7.57;;;3.00;99.90;;;;;;5012078;28;20048;-40
2023/04/20 04:13:25;;;;;;;8.85;7.72;;;3.00;99.90;;;;;;5008414;28;20061;-40
2023/04/20 04:15:52;;;;;;;5.03;4.57;;;3.00;99.90;;;;;;5018304;28;20049;-40
2023/04/20 04:18:21;;;;;;;9.68;7.80;;;3.00;99.90;;;;;;5013359;28;20053;-40
2023/04/20 04:20:50;;;;;;;9.20;8.30;;;3.00;99.90;;;;;;5008757;28;20049;-42
2023/04/20 04:23:17;;;;;;;6.13;5.53;;;2.90;99.90;;;;;;5009065;28;20585;-40
2023/04/20 04:25:53;;;;;;;9.35;7.63;;;2.90;99.90;;;;;;5006474;28;20062;-42
2023/04/20 04:28:23;;;;;;;9.13;6.53;;;2.90;99.90;;;;;;5009025;28;20370;-41
2023/04/20 04:31:11;;;;;;;9.05;6.60;;;2.90;99.90;;;;;;5007418;28;20042;-40
2023/04/20 04:33:38;;;;;;;9.48;6.80;;;3.00;99.90;;;;;;5013673;28;20045;-39
2023/04/20 04:36:07;;;;;;;9.00;6.78;;;3.00;99.90;;;;;;5009640;28;20068;-41
2023/04/20 04:38:34;;;;;;;9.43;7.68;;;3.00;99.90;;;;;;5014500;28;20057;-40
2023/04/20 04:41:02;;;;;;;10.50;9.45;;;3.00;99.90;;;;;;5010658;28;20060;-41
2023/04/20 04:43:32;;;;;;;10.35;7.13;;;2.90;99.90;;;;;;5015899;28;20044;-40
2023/04/20 04:46:09;;;;;;;10.77;6.72;;;2.90;99.90;;;;;;5014985;28;20406;-41
2023/04/20 04:48:39;;;;;;;8.98;7.93;;;3.00;99.90;;;;;;5015254;28;20053;-39
2023/04/20 04:51:08;;;;;;;7.97;7.07;;;2.90;99.90;;;;;;5041296;28;20044;-41
2023/04/20 04:53:36;;;;;;;9.73;7.53;;;2.90;99.90;;;;;;5045234;28;20049;-42
2023/04/20 04:56:04;;;;;;;7.38;6.68;;;2.90;99.90;;;;;;5045300;28;20044;-40
2023/04/20 04:58:31;;;;;;;9.63;6.65;;;3.00;99.90;;;;;;5043831;28;20044;-40
2023/04/20 05:00:59;;;;;;;10.70;6.85;;;2.90;99.90;;;;;;5044695;28;20488;-41
2023/04/20 05:03:27;;;;;;;8.00;6.43;;;2.90;99.90;;;;;;5041454;28;20080;-39
2023/04/20 05:05:55;;;;;;;6.68;6.03;;;2.90;99.90;;;;;;5044727;28;20099;-40
2023/04/20 05:08:25;;;;;;;6.57;5.82;;;2.90;99.90;;;;;;5043226;28;20037;-45
2023/04/20 05:10:53;;;;;;;8.23;5.55;;;2.90;99.90;;;;;;5040012;28;20048;-40
2023/04/20 05:13:20;;;;;;;6.70;5.75;;;2.80;99.90;;;;;;5042558;28;20049;-42
2023/04/20 05:15:48;;;;;;;7.05;4.82;;;2.90;99.90;;;;;;5044379;28;20041;-40
2023/04/20 05:18:15;;;;;;;5.22;4.15;;;2.90;99.90;;;;;;5044677;28;20053;-40
2023/04/20 05:20:43;;;;;;;7.75;6.38;;;2.90;99.90;;;;;;5044036;28;20052;-41
2023/04/20 05:23:11;;;;;;;4.93;4.45;;;2.80;99.90;;;;;;5044730;28;20033;-41
2023/04/20 05:25:38;;;;;;;4.80;4.30;;;2.80;99.90;;;;;;5044289;28;20052;-40
2023/04/20 05:28:06;;;;;;;5.28;4.40;;;2.80;99.90;;;;;;5041824;28;20048;-40
2023/04/20 05:30:34;;;;;;;7.78;6.45;;;2.90;99.90;;;;;;5059039;28;20037;-43
2023/04/20 05:33:01;;;;;;;8.13;5.35;;;2.90;99.90;;;;;;5048761;28;20505;-39
2023/04/20 05:35:29;;;;;;;7.63;6.05;;;2.90;99.90;;;;;;5048700;28;20064;-40
2023/04/20 05:38:01;;;;;;;6.75;5.18;;;3.00;99.90;;;;;;5046156;28;20052;-39
2023/04/20 05:40:28;;;;;;;;;;;2.90;99.90;;;;;;5046412;28;20072;-42
2023/04/20 05:42:56;;;;;;;6.28;5.00;;;3.00;99.90;;;;;;5047499;28;19930;-42
2023/04/20 05:45:23;;;;;;;10.55;7.75;;;3.00;99.90;;;;;;5049154;28;20076;-41
2023/04/20 05:47:52;;;;;;;5.75;5.30;;;3.00;99.90;;;;;;5048298;28;20045;-40
2023/04/20 05:50:24;;;;;;;13.07;11.77;;;3.00;99.90;;;;;;5047843;28;20057;-43
2023/04/20 05:52:52;;;;;;;8.80;8.05;;;2.90;99.90;;;;;;5045211;28;20426;-40
2023/04/20 05:55:19;;;;;;;10.50;7.57;;;2.90;99.90;;;;;;5047155;28;20053;-40
2023/04/20 05:57:51;;;;;;;6.30;5.70;;;3.00;99.90;;;;;;5047816;28;20037;-41
2023/04/20 06:00:19;;;;;;;4.85;4.32;;;3.00;99.90;;;;;;5047405;28;20056;-40
2023/04/20 06:02:47;;;;;;;6.57;5.63;;;2.90;99.90;;;;;;5047066;28;20040;-42
2023/04/20 06:05:15;;;;;;;3.92;3.63;;;3.00;99.90;;;;;;5045895;28;20063;-39
2023/04/20 06:07:42;;;;;;;4.88;4.38;;;3.00;99.90;;;;;;5046205;28;20040;-40
2023/04/20 06:10:11;;;;;;;3.88;3.63;;;3.00;99.90;;;;;;5048127;28;20559;-40
2023/04/20 06:12:40;;;;;;;7.20;6.35;;;3.00;99.90;;;;;;5046225;28;20063;-41
2023/04/20 06:15:09;;;;;;;12.52;8.35;;;3.00;99.90;;;;;;5045836;28;20052;-40
2023/04/20 06:17:39;;;;;;;8.93;8.00;;;3.10;99.90;;;;;;5047599;28;20048;-40
2023/04/20 06:20:10;;;;;;;9.10;8.13;;;3.10;99.90;;;;;;5044571;28;20044;-42
2023/04/20 06:22:45;;;;;;;11.77;10.15;;;3.20;99.90;;;;;;5046829;28;20056;-40
2023/04/20 06:25:12;;;;;;;7.00;6.38;;;3.20;99.90;;;;;;5047701;28;20053;-39
2023/04/20 06:27:40;;;;;;;9.05;7.55;;;3.20;99.90;;;;;;5046563;28;20045;-40
2023/04/20 06:30:08;;;;;;;6.28;5.70;;;3.20;99.90;;;;;;5043471;28;20049;-39
2023/04/20 06:32:36;;;;;;;8.20;6.90;;;3.20;99.90;;;;;;5046564;28;20052;-40
2023/04/20 06:35:05;;;;;;;7.55;5.32;;;3.20;99.90;;;;;;5047871;28;20052;-39
2023/04/20 06:37:35;;;;;;;9.25;8.05;;;3.20;99.90;;;;;;5047617;28;20052;-42
2023/04/20 06:40:06;;;;;;;9.40;7.90;;;3.20;99.90;;;;;;5046992;28;20049;-40
2023/04/20 06:42:36;;;;;;;9.85;8.77;;;3.20;99.90;;;;;;5045708;28;20049;-40
2023/04/20 06:45:05;;;;;;;8.10;7.05;;;3.20;99.90;;;;;;5045903;28;20405;-40
2023/04/20 06:47:33;;;;;;;10.48;8.98;;;3.20;99.90;;;;;;5047092;28;20044;-39
2023/04/20 06:50:03;;;;;;;9.05;8.10;;;3.10;99.90;;;;;;5046732;28;20405;-40
2023/04/20 06:52:31;;;;;;;16.30;10.57;;;3.20;99.90;;;;;;5046323;28;20599;-39
2023/04/20 06:54:59;;;;;;;9.88;8.77;;;3.20;99.90;;;;;;5046664;28;20044;-40
2023/04/20 06:57:26;;;;;;;8.32;6.32;;;3.20;99.90;;;;;;5046025;28;20509;-39
2023/04/20 06:59:54;;;;;;;11.07;8.73;;;3.20;99.90;;;;;;5046060;28;20075;-38
2023/04/20 07:02:22;;;;;;;11.73;9.63;;;3.20;99.90;;;;;;5045744;28;20053;-39
2023/04/20 07:04:50;;;;;;;11.68;9.77;;;3.20;99.90;;;;;;5047390;28;20468;-39
2023/04/20 07:07:18;;;;;;;9.73;8.80;;;3.20;99.90;;;;;;5046445;28;20707;-40
2023/04/20 07:09:45;;;;;;;7.78;7.05;;;3.30;99.90;;;;;;5044068;28;20073;-39
2023/04/20 07:12:15;;;;;;;12.73;9.27;;;3.30;99.90;;;;;;5044240;28;20536;-41
2023/04/20 07:14:43;;;;;;;10.90;9.82;;;3.30;99.90;;;;;;5046200;28;20523;-38
2023/04/20 07:17:10;;;;;;;9.45;8.25;;;3.30;99.90;;;;;;5045664;28;20504;-40
2023/04/20 07:19:38;;;;;;;16.35;13.13;;;3.20;99.90;;;;;;5044105;28;20059;-40
2023/04/20 07:22:06;;;;;;;18.63;10.63;;;3.20;99.90;;;;;;5043061;28;20063;-38
2023/04/20 07:24:34;;;;;;;10.02;7.72;;;3.30;99.90;;;;;;5043513;28;20053;-41
2023/04/20 07:27:01;;;;;;;16.92;13.05;;;3.20;99.90;;;;;;5058154;28;20365;-40
2023/04/20 07:29:29;;;;;;;14.15;11.73;;;3.20;99.90;;;;;;5042792;28;20049;-42
2023/04/20 07:31:59;;;;;;;13.02;11.82;;;3.30;99.90;;;;;;5043424;28;20059;-41
2023/04/20 07:34:26;;;;;;;20.50;18.33;;;3.30;99.90;;;;;;5043322;28;20060;-41
2023/04/20 07:36:54;;;;;;;11.82;10.63;;;3.20;99.90;;;;;;5044676;28;20056;-42
2023/04/20 07:39:24;;;;;;;12.00;10.80;;;3.30;99.90;;;;;;5042878;28;20053;-40
2023/04/20 07:41:51;;;;;;;13.68;12.38;;;3.30;99.90;;;;;;5043160;28;20052;-41
2023/04/20 07:44:19;;;;;;;14.00;11.23;;;3.30;99.90;;;;;;5040844;28;20071;-40
2023/04/20 07:46:48;;;;;;;12.35;8.82;;;3.30;99.90;;;;;;5043227;28;20048;-38
2023/04/20 07:49:16;;;;;;;7.22;6.43;;;3.40;99.90;;;;;;5043257;28;20061;-40
2023/04/20 07:51:44;;;;;;;10.13;8.75;;;3.40;99.90;;;;;;5041784;28;20060;-41
2023/04/20 07:54:11;;;;;;;11.15;10.13;;;3.40;99.90;;;;;;5041729;28;20482;-39
2023/04/20 07:56:39;;;;;;;17.80;13.60;;;3.40;99.90;;;;;;5043979;28;20064;-39
2023/04/20 07:59:07;;;;;;;12.15;10.48;;;3.40;99.90;;;;;;5041726;28;20044;-39
2023/04/20 08:01:35;;;;;;;10.80;9.60;;;3.40;99.90;;;;;;5042849;28;20052;-39
2023/04/20 08:04:03;;;;;;;11.25;10.15;;;3.40;99.90;;;;;;5042604;28;20049;-39
2023/04/20 08:06:31;;;;;;;9.30;8.52;;;3.40;99.90;;;;;;5038515;28;20122;-41
2023/04/20 08:08:59;;;;;;;7.85;5.05;;;3.40;99.90;;;;;;5040012;28;20068;-42
2023/04/20 08:11:26;;;;;;;11.75;8.73;;;3.40;99.90;;;;;;5041105;28;20041;-41
2023/04/20 08:13:54;;;;;;;10.02;8.32;;;3.40;99.90;;;;;;5041292;28;20049;-39
2023/04/20 08:16:24;;;;;;;10.15;7.28;;;3.50;99.90;;;;;;5041331;28;20048;-40
2023/04/20 08:18:52;;;;;;;12.98;9.88;;;3.50;99.90;;;;;;5042184;28;20045;-40
2023/04/20 08:21:22;;;;;;;8.40;7.60;;;3.60;99.90;;;;;;5042404;28;20425;-42
2023/04/20 08:23:52;;;;;;;5.47;5.00;;;3.60;99.90;;;;;;5041736;28;20045;-40
2023/04/20 08:26:24;;;;;;;9.68;8.77;;;3.60;99.90;;;;;;5042315;28;20064;-39
2023/04/20 08:28:51;;;;;;;9.98;9.05;;;3.60;99.90;;;;;;5037933;28;20052;-40
2023/04/20 08:31:19;;;;;;;11.40;8.30;;;3.60;99.90;;;;;;5042249;28;20525;-38
2023/04/20 08:33:47;;;;;;;9.00;6.88;;;3.50;99.90;;;;;;5042559;28;20532;-37
2023/04/20 08:36:15;;;;;;;12.88;8.43;;;3.60;99.90;;;;;;5042994;28;20037;-38
2023/04/20 08:38:42;;;;;;;10.30;9.27;;;3.60;99.90;;;;;;5041552;28;20060;-39
2023/04/20 08:41:13;;;;;;;9.95;8.93;;;3.60;99.90;;;;;;5042483;28;20049;-40
2023/04/20 08:43:41;;;;;;;9.95;8.98;;;3.60;99.90;;;;;;5041130;28;20041;-39
2023/04/20 08:46:09;;;;;;;12.63;9.77;;;3.70;99.90;;;;;;5040138;28;20375;-39
2023/04/20 08:48:38;;;;;;;11.27;9.18;;;3.80;99.90;;;;;;5043201;28;20056;-39
2023/04/20 08:51:06;;;;;;;9.77;8.80;;;3.90;99.90;;;;;;5042357;28;20045;-39
2023/04/20 08:53:33;;;;;;;8.55;7.82;;;3.90;99.90;;;;;;5042986;28;20055;-39
2023/04/20 08:56:01;;;;;;;10.35;9.27;;;4.00;99.90;;;;;;5041972;28;20041;-42
2023/04/20 08:58:31;;;;;;;14.02;10.73;;;3.90;99.90;;;;;;5040685;28;20040;-39
2023/04/20 09:01:01;;;;;;;10.52;9.52;;;3.90;99.90;;;;;;5040755;28;20060;-40
2023/04/20 09:03:41;;;;;;;8.90;7.72;;;4.00;99.90;;;;;;5042240;28;20765;-39
2023/04/20 09:06:16;;;;;;;11.25;9.00;;;4.10;99.90;;;;;;5038320;28;20053;-39
2023/04/20 09:08:45;;;;;;;6.97;6.05;;;4.10;99.90;;;;;;5042214;28;20051;-39
2023/04/20 09:11:23;;;;;;;7.35;6.60;;;4.00;99.90;;;;;;5040699;28;20528;-43
2023/04/20 09:14:14;;;;;;;9.73;8.65;;;4.00;99.90;;;;;;5039981;28;20063;-38
2023/04/20 09:16:50;;;;;;;11.10;9.93;;;4.00;99.90;;;;;;5046154;28;20505;-40
2023/04/20 09:19:25;;;;;;;12.73;10.18;;;4.10;99.90;;;;;;5041845;28;20422;-39
2023/04/20 09:21:55;;;;;;;7.60;6.90;;;4.20;99.90;;;;;;5041405;28;20449;-39
2023/04/20 09:24:30;;;;;;;8.25;7.50;;;4.30;99.90;;;;;;5040524;28;20074;-39
2023/04/20 09:26:58;;;;;;;10.13;8.50;;;4.40;99.90;;;;;;5041814;28;20401;-40
2023/04/20 09:29:26;;;;;;;8.43;7.28;;;4.40;99.90;;;;;;5041441;28;20502;-39
2023/04/20 09:31:54;;;;;;;9.43;8.60;;;4.40;99.90;;;;;;5040311;28;20040;-38
2023/04/20 09:34:23;;;;;;;11.02;9.93;;;4.20;99.90;;;;;;5040898;28;20045;-38
2023/04/20 09:36:53;;;;;;;12.60;10.15;;;4.30;99.90;;;;;;5041120;28;20053;-39
2023/04/20 09:39:24;;;;;;;11.10;9.93;;;4.30;99.90;;;;;;5040910;28;20044;-38
2023/04/20 09:41:51;;;;;;;15.70;12.87;;;4.30;99.90;;;;;;5039397;28;20449;-37
2023/04/20 09:44:20;;;;;;;7.53;5.07;;;4.40;99.90;;;;;;5040201;28;20292;-39
2023/04/20 09:46:47;;;;;;;7.88;6.97;;;4.40;99.90;;;;;;5040860;28;20405;-39
2023/04/20 09:49:15;;;;;;;8.77;7.95;;;4.40;99.90;;;;;;5040059;28;20049;-39
2023/04/20 09:51:45;;;;;;;8.05;7.30;;;4.60;99.90;;;;;;5040855;28;20049;-38
2023/04/20 09:54:14;;;;;;;11.02;8.68;;;4.70;99.90;;;;;;5039048;28;20049;-40
2023/04/20 09:56:44;;;;;;;6.03;5.53;;;4.90;99.90;;;;;;5041758;28;20057;-41
2023/04/20 09:59:12;;;;;;;7.90;7.20;;;4.80;99.90;;;;;;5038032;28;20144;-38
2023/04/20 10:01:40;;;;;;;8.32;7.63;;;4.80;99.90;;;;;;5040532;28;20057;-39
2023/04/20 10:04:09;;;;;;;10.15;9.13;;;4.80;99.90;;;;;;5040796;28;20045;-39
2023/04/20 10:06:38;;;;;;;8.02;6.57;;;4.80;99.90;;;;;;5041427;28;20060;-48
2023/04/20 10:09:07;;;;;;;9.75;8.75;;;4.80;99.90;;;;;;5041505;28;20064;-38
2023/04/20 10:11:42;;;;;;;8.90;7.18;;;4.90;99.90;;;;;;5040410;28;20045;-39
2023/04/20 10:14:24;;;;;;;8.57;7.55;;;4.70;99.90;;;;;;5037956;28;20061;-38
2023/04/20 10:17:07;;;;;;;8.02;6.65;;;4.60;99.90;;;;;;5041906;28;20525;-37
2023/04/20 10:19:44;;;;;;;8.82;7.80;;;4.70;99.90;;;;;;5078040;28;20053;-39
2023/04/20 10:22:28;;;;;;;7.13;6.50;;;4.70;99.90;;;;;;5043447;28;20053;-39
2023/04/20 10:24:55;;;;;;;7.53;6.63;;;4.80;99.90;;;;;;5044179;28;20064;-38
2023/04/20 10:27:23;;;;;;;8.10;7.30;;;4.90;99.90;;;;;;5043305;28;20060;-38
2023/04/20 10:29:50;;;;;;;6.25;5.68;;;5.00;99.90;;;;;;5045098;28;20040;-38
2023/04/20 10:32:26;;;;;;;6.43;5.78;;;5.00;99.90;;;;;;5044653;28;20436;-40
2023/04/20 10:35:05;;;;;;;6.35;5.75;;;4.90;99.90;;;;;;5044484;28;20202;-39
2023/04/20 10:37:33;;;;;;;8.07;7.38;;;4.90;99.90;;;;;;5045041;28;20053;-37
2023/04/20 10:40:03;;;;;;;7.68;6.97;;;4.90;99.90;;;;;;5045066;28;20406;-38
2023/04/20 10:42:43;;;;;;;5.32;4.85;;;5.00;99.90;;;;;;5048349;28;20044;-38
2023/04/20 10:45:11;;;;;;;5.95;5.45;;;4.90;99.90;;;;;;5044181;28;20048;-38
2023/04/20 10:47:39;;;;;;;4.90;4.57;;;4.80;99.90;;;;;;5044813;28;20044;-39
2023/04/20 10:50:09;;;;;;;8.27;7.45;;;4.80;99.90;;;;;;5044288;28;20417;-38
2023/04/20 10:52:39;;;;;;;8.85;7.47;;;5.00;99.90;;;;;;5044326;28;20060;-39
2023/04/20 10:55:20;;;;;;;11.60;8.70;;;5.10;99.90;;;;;;5042956;28;20241;-38
2023/04/20 10:57:49;;;;;;;7.43;6.32;;;5.20;99.90;;;;;;5044013;28;20185;-38
2023/04/20 11:00:19;;;;;;;10.18;9.18;;;5.10;99.90;;;;;;5042711;28;20425;-38
2023/04/20 11:02:52;;;;;;;8.80;8.05;;;5.10;99.90;;;;;;5041291;28;20045;-38
2023/04/20 11:05:21;;;;;;;8.75;7.95;;;5.30;99.90;;;;;;5045614;28;20422;-38
2023/04/20 11:07:52;;;;;;;8.18;5.68;;;5.30;99.90;;;;;;5043698;28;20044;-38
2023/04/20 11:10:22;;;;;;;7.93;7.15;;;5.30;99.90;;;;;;5044699;28;20581;-38
2023/04/20 11:12:50;;;;;;;10.18;7.78;;;5.30;99.90;;;;;;5037999;28;20049;-38
2023/04/20 11:15:18;;;;;;;8.95;7.03;;;5.30;99.90;;;;;;5043897;28;20068;-38
2023/04/20 11:17:46;;;;;;;7.78;7.03;;;5.30;99.90;;;;;;5041169;28;20413;-38
2023/04/20 11:20:15;;;;;;;5.85;5.35;;;5.30;99.90;;;;;;5042162;28;20052;-38
2023/04/20 11:22:43;;;;;;;8.32;7.50;;;5.40;99.90;;;;;;5043695;28;20053;-37
2023/04/20 11:25:11;;;;;;;8.48;7.57;;;5.50;99.90;;;;;;5043622;28;20060;-38
2023/04/20 11:27:40;;;;;;;7.70;6.90;;;5.60;99.90;;;;;;5042074;28;20057;-38
2023/04/20 11:30:08;;;;;;;9.70;8.75;;;5.80;99.90;;;;;;5042048;28;20053;-38
2023/04/20 11:32:36;;;;;;;6.03;5.57;;;5.80;99.90;;;;;;5042342;28;20076;-38
2023/04/20 11:35:08;;;;;;;9.60;6.93;;;5.70;99.90;;;;;;5043242;28;20045;-38
2023/04/20 11:37:50;;;;;;;10.20;9.07;;;5.50;99.90;;;;;;5042985;28;20049;-38
2023/04/20 11:40:18;;;;;;;8.43;7.57;;;5.50;99.90;;;;;;5043059;28;20489;-39
2023/04/20 11:42:46;;;;;;;8.18;6.38;;;5.60;99.90;;;;;;5042034;28;20045;-38
2023/04/20 11:45:14;;;;;;;10.80;8.65;;;5.60;99.90;;;;;;5043103;28;20055;-37
2023/04/20 11:47:42;;;;;;;7.13;5.90;;;5.70;99.90;;;;;;5043195;28;20049;-38
2023/04/20 11:50:11;;;;;;;12.57;9.05;;;5.80;99.90;;;;;;5042902;28;20049;-38
2023/04/20 11:52:38;;;;;;;7.82;6.90;;;5.70;99.90;;;;;;5042787;28;20069;-37
2023/04/20 11:55:10;;;;;;;10.35;9.32;;;5.90;99.90;;;;;;5042341;28;20423;-37
2023/04/20 11:57:37;;;;;;;8.90;7.97;;;5.90;99.90;;;;;;5040939;28;20056;-38
2023/04/20 12:00:06;;;;;;;10.23;8.40;;;6.00;99.90;;;;;;5043053;28;20083;-40
2023/04/20 12:02:40;;;;;;;7.82;7.05;;;6.00;99.90;;;;;;5041225;28;20064;-38
2023/04/20 12:05:08;;;;;;;9.20;6.97;;;6.10;99.90;;;;;;5044046;28;20037;-37
2023/04/20 12:07:36;;;;;;;10.10;9.02;;;6.40;99.90;;;;;;5041835;28;20059;-36
2023/04/20 12:10:05;;;;;;;10.15;7.93;;;6.50;99.90;;;;;;5043332;28;20045;-37
2023/04/20 12:12:33;;;;;;;8.98;7.95;;;6.50;99.90;;;;;;5038751;28;20045;-37
2023/04/20 12:15:00;;;;;;;11.23;9.05;;;6.40;99.90;;;;;;5042653;28;20048;-37
2023/04/20 12:17:28;;;;;;;10.30;8.23;;;6.20;99.90;;;;;;5043448;28;20494;-38
2023/04/20 12:19:56;;;;;;;11.00;7.82;;;6.20;99.90;;;;;;5042080;28;20045;-38
2023/04/20 12:22:24;;;;;;;15.45;11.27;;;6.20;99.90;;;;;;5041352;28;20049;-38
2023/04/20 12:24:52;;;;;;;10.75;9.65;;;6.30;99.90;;;;;;5042622;28;20060;-37
2023/04/20 12:27:19;;;;;;;11.07;8.73;;;6.30;99.90;;;;;;5041377;28;20049;-42
2023/04/20 12:29:47;;;;;;;13.63;8.30;;;6.40;99.90;;;;;;5042188;28;20053;-37
2023/04/20 12:32:15;;;;;;;8.38;7.63;;;6.40;99.90;;;;;;5041826;28;20047;-39
2023/04/20 12:34:42;;;;;;;12.85;7.85;;;6.40;99.90;;;;;;5041726;28;20049;-38
2023/04/20 12:37:10;;;;;;;11.80;9.77;;;6.40;99.90;;;;;;5042483;28;20532;-38
2023/04/20 12:39:37;;;;;;;4.28;3.95;;;6.40;99.90;;;;;;5041857;28;20052;-38
2023/04/20 12:42:05;;;;;;;13.50;10.73;;;6.40;99.90;;;;;;5041599;28;20064;-37
2023/04/20 12:44:32;;;;;;;13.02;8.80;;;6.40;99.90;;;;;;5039686;28;20523;-37
2023/04/20 12:47:00;;;;;;;16.75;11.05;;;6.40;99.90;;;;;;5042348;28;20048;-38
2023/04/20 12:49:28;;;;;;;14.25;12.60;;;6.30;99.90;;;;;;5042393;28;20460;-38
2023/04/20 12:51:55;;;;;;;16.15;10.68;;;6.20;99.90;;;;;;5041319;28;20052;-39
2023/04/20 12:54:23;;;;;;;15.15;8.90;;;6.20;99.90;;;;;;5041460;28;20576;-38
2023/04/20 12:56:50;;;;;;;18.08;11.85;;;6.30;99.90;;;;;;5042658;28;20524;-38
2023/04/20 12:59:18;;;;;;;19.83;11.25;;;6.30;99.90;;;;;;5040068;28;20056;-38
2023/04/20 13:01:45;;;;;;;18.45;13.50;;;6.30;99.90;;;;;;5043196;28;20460;-38
2023/04/20 13:04:14;;;;;;;15.52;11.18;;;6.40;99.90;;;;;;5041246;28;20087;-38